createdAt,value
2017-07-05T00:01:01.810Z,14.50
2017-07-05T00:03:29.333Z,14.40
2017-07-05T00:05:56.883Z,14.30
2017-07-05T00:08:24.411Z,14.20
2017-07-05T00:10:51.964Z,14.20
2017-07-05T00:13:19.487Z,14.20
2017-07-05T00:15:47.041Z,14.20
2017-07-05T00:18:14.564Z,14.20
2017-07-05T00:20:42.092Z,14.20
2017-07-05T00:23:09.635Z,14.20
2017-07-05T00:25:37.160Z,14.20
2017-07-05T00:28:04.708Z,14.20
2017-07-05T00:30:32.232Z,14.20
2017-07-05T00:32:59.775Z,14.20
2017-07-05T00:35:27.307Z,14.10
2017-07-05T00:37:54.858Z,14.10
2017-07-05T00:40:22.386Z,14.10
2017-07-05T00:42:49.928Z,14.00
2017-07-05T00:45:17.452Z,14.10
2017-07-05T00:47:45.000Z,14.10
2017-07-05T00:50:12.523Z,14.00
2017-07-05T00:52:40.045Z,13.90
2017-07-05T00:55:07.591Z,13.90
2017-07-05T00:57:35.115Z,13.80
2017-07-05T01:00:02.661Z,13.70
2017-07-05T01:02:30.196Z,13.70
2017-07-05T01:04:58.503Z,13.80
2017-07-05T01:07:26.031Z,13.80
2017-07-05T01:09:54.341Z,13.90
2017-07-05T01:12:21.867Z,13.90
2017-07-05T01:14:49.412Z,13.90
2017-07-05T01:17:16.944Z,13.90
2017-07-05T01:19:44.633Z,13.90
2017-07-05T01:22:12.156Z,13.80
2017-07-05T01:24:39.676Z,13.70
2017-07-05T01:27:07.244Z,13.50
2017-07-05T01:29:34.767Z,13.30
2017-07-05T01:32:02.312Z,13.20
2017-07-05T01:34:30.605Z,13.20
2017-07-05T01:36:58.151Z,13.10
2017-07-05T01:39:26.452Z,13.20
2017-07-05T01:41:54.006Z,13.20
2017-07-05T01:44:21.542Z,13.30
2017-07-05T01:46:49.091Z,13.30
2017-07-05T01:49:16.626Z,13.40
2017-07-05T01:51:44.175Z,13.40
2017-07-05T01:54:11.699Z,13.40
2017-07-05T01:56:39.225Z,13.40
2017-07-05T01:59:06.768Z,13.50
2017-07-05T02:01:34.296Z,13.50
2017-07-05T02:04:01.850Z,13.50
2017-07-05T02:06:29.379Z,13.50
2017-07-05T02:08:56.935Z,13.50
2017-07-05T02:11:24.460Z,13.60
2017-07-05T02:13:52.007Z,13.50
2017-07-05T02:16:19.541Z,13.50
2017-07-05T02:18:47.088Z,13.50
2017-07-05T02:21:14.617Z,13.40
2017-07-05T02:23:42.941Z,13.20
2017-07-05T02:26:10.471Z,13.20
2017-07-05T02:28:38.763Z,13.10
2017-07-05T02:31:06.304Z,13.00
2017-07-05T02:33:33.828Z,12.90
2017-07-05T02:36:01.384Z,12.90
2017-07-05T02:38:28.911Z,12.90
2017-07-05T02:40:56.458Z,12.90
2017-07-05T02:43:23.984Z,13.00
2017-07-05T02:45:51.531Z,13.00
2017-07-05T02:48:19.063Z,12.80
2017-07-05T02:50:47.160Z,12.70
2017-07-05T02:53:14.688Z,12.60
2017-07-05T02:55:42.237Z,12.50
2017-07-05T02:58:09.768Z,12.50
2017-07-05T03:00:37.320Z,12.50
2017-07-05T03:03:04.851Z,12.60
2017-07-05T03:05:32.375Z,12.70
2017-07-05T03:07:59.919Z,12.80
2017-07-05T03:10:27.443Z,12.80
2017-07-05T03:12:54.984Z,12.90
2017-07-05T03:15:22.512Z,13.00
2017-07-05T03:17:50.052Z,13.00
2017-07-05T03:20:17.578Z,13.00
2017-07-05T03:22:45.127Z,13.10
2017-07-05T03:25:12.652Z,13.10
2017-07-05T03:27:40.198Z,13.10
2017-07-05T03:30:07.714Z,13.10
2017-07-05T03:32:35.269Z,13.10
2017-07-05T03:35:02.790Z,13.10
2017-07-05T03:37:30.313Z,13.10
2017-07-05T03:39:57.852Z,13.10
2017-07-05T03:42:26.147Z,13.00
2017-07-05T03:44:53.699Z,12.90
2017-07-05T03:47:21.224Z,13.00
2017-07-05T03:49:48.766Z,13.00
2017-07-05T03:52:16.287Z,13.20
2017-07-05T03:54:43.835Z,13.30
2017-07-05T03:57:11.363Z,13.50
2017-07-05T03:59:38.904Z,13.70
2017-07-05T04:02:07.200Z,13.90
2017-07-05T04:04:34.724Z,13.90
2017-07-05T04:07:03.039Z,14.00
2017-07-05T04:09:30.568Z,13.90
2017-07-05T04:11:58.115Z,14.00
2017-07-05T04:14:26.408Z,14.20
2017-07-05T04:16:53.958Z,14.10
2017-07-05T04:19:21.484Z,14.20
2017-07-05T04:21:49.043Z,14.30
2017-07-05T04:24:16.564Z,14.50
2017-07-05T04:26:44.089Z,14.80
2017-07-05T04:29:11.630Z,15.10
2017-07-05T04:31:39.155Z,15.40
2017-07-05T04:34:06.703Z,15.70
2017-07-05T04:36:34.232Z,15.80
2017-07-05T04:39:02.547Z,16.10
2017-07-05T04:41:30.069Z,16.10
2017-07-05T04:43:57.610Z,16.20
2017-07-05T04:46:25.136Z,16.40
2017-07-05T04:48:52.705Z,16.60
2017-07-05T04:51:20.233Z,17.00
2017-07-05T04:53:47.756Z,17.20
2017-07-05T04:56:16.069Z,18.00
2017-07-05T04:58:43.596Z,18.00
2017-07-05T05:01:11.147Z,18.40
2017-07-05T05:03:38.671Z,18.90
2017-07-05T05:06:06.219Z,19.30
2017-07-05T05:08:34.514Z,19.80
2017-07-05T05:11:02.823Z,20.00
2017-07-05T05:13:30.353Z,20.00
2017-07-05T05:15:58.666Z,20.70
2017-07-05T05:18:26.191Z,20.70
2017-07-05T05:20:53.748Z,21.10
2017-07-05T05:23:21.275Z,21.40
2017-07-05T05:25:48.798Z,21.90
2017-07-05T05:28:16.350Z,22.40
2017-07-05T05:30:43.873Z,22.90
2017-07-05T05:33:12.192Z,23.90
2017-07-05T05:35:39.720Z,23.90
2017-07-05T05:38:07.267Z,24.30
2017-07-05T05:40:34.793Z,23.90
2017-07-05T05:43:02.340Z,23.30
2017-07-05T05:45:29.874Z,23.20
2017-07-05T05:47:57.420Z,23.40
2017-07-05T05:50:25.712Z,24.80
2017-07-05T05:52:53.260Z,24.80
2017-07-05T05:55:21.549Z,26.50
2017-07-05T05:57:49.109Z,26.40
2017-07-05T06:00:16.631Z,27.00
2017-07-05T06:02:44.155Z,27.10
2017-07-05T06:05:11.700Z,27.40
2017-07-05T06:07:39.228Z,27.50
2017-07-05T06:10:06.775Z,27.70
2017-07-05T06:12:34.299Z,27.80
2017-07-05T06:15:01.846Z,28.10
2017-07-05T06:17:29.367Z,28.40
2017-07-05T06:19:57.679Z,29.00
2017-07-05T06:22:25.206Z,29.00
2017-07-05T06:24:52.756Z,29.50
2017-07-05T06:27:20.283Z,29.50
2017-07-05T06:29:48.600Z,30.30
2017-07-05T06:32:16.132Z,30.30
2017-07-05T06:34:43.699Z,30.30
2017-07-05T06:37:11.221Z,30.40
2017-07-05T06:39:38.746Z,30.70
2017-07-05T06:42:06.284Z,30.70
2017-07-05T06:44:33.803Z,30.60
2017-07-05T06:47:01.363Z,30.80
2017-07-05T06:49:28.893Z,31.10
2017-07-05T06:51:57.209Z,31.60
2017-07-05T06:54:24.731Z,31.50
2017-07-05T06:56:52.281Z,31.40
2017-07-05T06:59:19.810Z,31.10
2017-07-05T07:01:47.365Z,31.00
2017-07-05T07:04:14.894Z,31.10
2017-07-05T07:06:42.445Z,31.30
2017-07-05T07:09:09.973Z,31.40
2017-07-05T07:11:37.500Z,31.30
2017-07-05T07:14:05.044Z,31.00
2017-07-05T07:16:33.338Z,31.10
2017-07-05T07:19:00.884Z,31.10
2017-07-05T07:21:29.176Z,31.30
2017-07-05T07:23:56.724Z,31.30
2017-07-05T07:26:24.252Z,30.90
2017-07-05T07:28:52.560Z,30.30
2017-07-05T07:31:20.084Z,30.30
2017-07-05T07:33:47.628Z,29.80
2017-07-05T07:36:15.161Z,30.10
2017-07-05T07:38:42.699Z,30.40
2017-07-05T07:41:10.228Z,30.40
2017-07-05T07:43:37.775Z,30.80
2017-07-05T07:46:05.294Z,31.10
2017-07-05T07:48:33.605Z,31.40
2017-07-05T07:51:01.127Z,31.40
2017-07-05T07:53:28.677Z,31.00
2017-07-05T07:55:56.213Z,30.90
2017-07-05T07:58:23.735Z,31.10
2017-07-05T08:00:51.284Z,31.40
2017-07-05T08:03:19.571Z,31.60
2017-07-05T08:05:47.119Z,31.60
2017-07-05T08:08:14.647Z,31.40
2017-07-05T08:10:42.187Z,31.50
2017-07-05T08:13:09.711Z,31.40
2017-07-05T08:15:38.019Z,31.80
2017-07-05T08:18:05.543Z,31.80
2017-07-05T08:20:33.092Z,31.90
2017-07-05T08:23:00.622Z,31.60
2017-07-05T08:25:28.931Z,31.80
2017-07-05T08:27:56.457Z,31.80
2017-07-05T08:30:24.019Z,32.00
2017-07-05T08:32:51.545Z,31.70
2017-07-05T08:35:19.839Z,32.20
2017-07-05T08:37:48.148Z,32.30
2017-07-05T08:40:15.673Z,32.30
2017-07-05T08:42:43.215Z,32.20
2017-07-05T08:45:10.739Z,32.30
2017-07-05T08:47:38.293Z,32.30
2017-07-05T08:50:05.824Z,32.00
2017-07-05T08:52:34.140Z,32.00
2017-07-05T08:55:01.664Z,32.00
2017-07-05T08:57:29.978Z,31.80
2017-07-05T08:59:57.510Z,31.70
2017-07-05T09:02:25.039Z,31.80
2017-07-05T09:04:52.584Z,32.10
2017-07-05T09:07:20.880Z,32.10
2017-07-05T09:09:48.434Z,32.10
2017-07-05T09:12:16.717Z,32.50
2017-07-05T09:14:44.265Z,32.50
2017-07-05T09:17:11.792Z,32.60
2017-07-05T09:19:40.101Z,33.00
2017-07-05T09:22:07.642Z,33.00
2017-07-05T09:24:35.217Z,33.30
2017-07-05T09:27:02.743Z,33.70
2017-07-05T09:29:31.048Z,33.80
2017-07-05T09:31:58.595Z,33.80
2017-07-05T09:34:26.890Z,33.70
2017-07-05T09:36:54.439Z,33.60
2017-07-05T09:39:21.967Z,33.50
2017-07-05T09:41:49.513Z,33.70
2017-07-05T09:44:17.034Z,33.10
2017-07-05T09:46:44.581Z,32.30
2017-07-05T09:49:12.102Z,32.20
2017-07-05T09:51:39.641Z,32.30
2017-07-05T09:54:07.164Z,32.30
2017-07-05T09:56:34.708Z,32.50
2017-07-05T09:59:03.003Z,32.00
2017-07-05T10:01:30.527Z,32.00
2017-07-05T10:03:58.072Z,31.50
2017-07-05T10:06:25.604Z,31.10
2017-07-05T10:08:53.149Z,31.20
2017-07-05T10:11:20.671Z,31.50
2017-07-05T10:13:48.206Z,32.20
2017-07-05T10:16:15.736Z,32.70
2017-07-05T10:18:43.282Z,33.20
2017-07-05T10:21:10.810Z,33.50
2017-07-05T10:23:39.128Z,34.30
2017-07-05T10:26:06.656Z,34.30
2017-07-05T10:28:34.185Z,34.80
2017-07-05T10:31:01.733Z,34.80
2017-07-05T10:33:29.258Z,34.50
2017-07-05T10:35:57.572Z,33.60
2017-07-05T10:38:25.091Z,33.60
2017-07-05T10:40:52.639Z,33.60
2017-07-05T10:43:20.165Z,33.80
2017-07-05T10:45:47.709Z,33.80
2017-07-05T10:48:15.235Z,33.70
2017-07-05T10:50:42.801Z,34.00
2017-07-05T10:53:10.333Z,33.90
2017-07-05T10:55:37.851Z,33.70
2017-07-05T10:58:05.399Z,34.30
2017-07-05T11:00:32.920Z,34.60
2017-07-05T11:03:00.506Z,34.20
2017-07-05T11:05:28.778Z,34.40
2017-07-05T11:07:56.319Z,34.40
2017-07-05T11:10:23.842Z,34.10
2017-07-05T11:12:51.379Z,33.50
2017-07-05T11:15:18.904Z,33.40
2017-07-05T11:17:46.453Z,33.50
2017-07-05T11:20:13.979Z,33.90
2017-07-05T11:22:41.519Z,33.60
2017-07-05T11:25:09.042Z,33.20
2017-07-05T11:27:36.604Z,32.80
2017-07-05T11:30:04.135Z,32.70
2017-07-05T11:32:32.425Z,32.80
2017-07-05T11:34:59.977Z,32.80
2017-07-05T11:37:27.508Z,32.50
2017-07-05T11:39:55.053Z,31.90
2017-07-05T11:42:23.339Z,32.30
2017-07-05T11:44:50.886Z,32.40
2017-07-05T11:47:18.408Z,32.80
2017-07-05T11:49:46.719Z,32.20
2017-07-05T11:52:14.332Z,32.20
2017-07-05T11:54:41.876Z,31.90
2017-07-05T11:57:09.404Z,31.60
2017-07-05T11:59:36.954Z,31.70
2017-07-05T12:02:05.238Z,33.00
2017-07-05T12:04:33.519Z,33.60
2017-07-05T12:07:01.069Z,33.50
2017-07-05T12:09:28.592Z,34.00
2017-07-05T12:11:56.909Z,34.40
2017-07-05T12:14:24.428Z,34.40
2017-07-05T12:16:51.971Z,34.30
2017-07-05T12:19:19.506Z,34.10
2017-07-05T12:21:47.064Z,33.80
2017-07-05T12:24:14.590Z,33.50
2017-07-05T12:26:42.137Z,33.80
2017-07-05T12:29:09.659Z,33.90
2017-07-05T12:31:37.203Z,34.00
2017-07-05T12:34:04.723Z,34.00
2017-07-05T12:36:32.267Z,33.90
2017-07-05T12:38:59.784Z,33.90
2017-07-05T12:41:27.429Z,33.90
2017-07-05T12:43:54.952Z,33.90
2017-07-05T12:46:22.479Z,33.90
2017-07-05T12:48:50.037Z,33.80
2017-07-05T12:51:17.637Z,33.40
2017-07-05T12:53:45.183Z,33.20
2017-07-05T12:56:12.711Z,33.20
2017-07-05T12:58:41.024Z,33.50
2017-07-05T13:01:08.543Z,33.50
2017-07-05T13:03:36.096Z,33.80
2017-07-05T13:06:03.622Z,34.00
2017-07-05T13:08:31.172Z,34.00
2017-07-05T13:10:58.695Z,33.40
2017-07-05T13:13:26.239Z,32.90
2017-07-05T13:15:53.772Z,32.90
2017-07-05T13:18:22.137Z,32.80
2017-07-05T13:20:49.664Z,32.80
2017-07-05T13:23:17.183Z,32.90
2017-07-05T13:25:45.491Z,32.80
2017-07-05T13:28:13.014Z,32.80
2017-07-05T13:30:40.564Z,32.50
2017-07-05T13:33:08.147Z,32.20
2017-07-05T13:35:35.706Z,32.10
2017-07-05T13:38:03.199Z,32.00
2017-07-05T13:40:31.511Z,32.20
2017-07-05T13:42:59.039Z,32.20
2017-07-05T13:45:26.598Z,32.20
2017-07-05T13:47:54.124Z,32.50
2017-07-05T13:50:21.684Z,32.80
2017-07-05T13:52:49.216Z,32.70
2017-07-05T13:55:17.541Z,32.50
2017-07-05T13:57:45.071Z,32.40
2017-07-05T14:00:12.596Z,32.60
2017-07-05T14:02:40.143Z,32.80
2017-07-05T14:05:07.671Z,32.90
2017-07-05T14:07:35.307Z,32.80
2017-07-05T14:10:02.829Z,32.80
2017-07-05T14:12:30.378Z,32.80
2017-07-05T14:14:57.907Z,32.70
2017-07-05T14:17:26.215Z,32.70
2017-07-05T14:19:53.741Z,32.70
2017-07-05T14:22:21.283Z,32.60
2017-07-05T14:24:48.811Z,32.50
2017-07-05T14:27:16.355Z,32.50
2017-07-05T14:29:43.880Z,32.30
2017-07-05T14:32:11.398Z,32.40
2017-07-05T14:34:38.945Z,32.50
2017-07-05T14:37:06.472Z,32.40
2017-07-05T14:39:34.018Z,31.80
2017-07-05T14:42:02.307Z,32.00
2017-07-05T14:44:29.851Z,32.00
2017-07-05T14:46:58.147Z,31.90
2017-07-05T14:49:25.696Z,31.90
2017-07-05T14:51:53.229Z,31.70
2017-07-05T14:54:20.790Z,31.70
2017-07-05T14:56:48.314Z,31.50
2017-07-05T14:59:15.871Z,31.60
2017-07-05T15:01:43.394Z,31.50
2017-07-05T15:04:10.920Z,31.40
2017-07-05T15:06:38.467Z,31.30
2017-07-05T15:09:05.991Z,31.40
2017-07-05T15:11:33.531Z,31.40
2017-07-05T15:14:01.052Z,31.40
2017-07-05T15:16:28.600Z,31.40
2017-07-05T15:18:56.892Z,31.30
2017-07-05T15:21:24.439Z,31.30
2017-07-05T15:23:51.969Z,31.20
2017-07-05T15:26:19.521Z,31.30
2017-07-05T15:28:47.046Z,31.20
2017-07-05T15:31:15.360Z,30.70
2017-07-05T15:33:42.903Z,30.70
2017-07-05T15:36:11.244Z,30.10
2017-07-05T15:38:38.787Z,30.10
2017-07-05T15:41:06.324Z,30.00
2017-07-05T15:43:33.869Z,30.10
2017-07-05T15:46:01.394Z,30.10
2017-07-05T15:48:29.704Z,30.10
2017-07-05T15:50:57.233Z,30.10
2017-07-05T15:53:25.554Z,29.60
2017-07-05T15:55:53.084Z,29.50
2017-07-05T15:58:20.628Z,29.50
2017-07-05T16:00:48.154Z,29.60
2017-07-05T16:03:15.712Z,29.60
2017-07-05T16:05:43.245Z,29.70
2017-07-05T16:08:10.784Z,29.40
2017-07-05T16:10:38.324Z,29.10
2017-07-05T16:13:05.848Z,29.00
2017-07-05T16:15:33.394Z,28.80
2017-07-05T16:18:00.915Z,28.80
2017-07-05T16:20:29.234Z,28.40
2017-07-05T16:22:56.754Z,28.40
2017-07-05T16:25:25.064Z,28.20
2017-07-05T16:27:52.588Z,28.20
2017-07-05T16:30:20.758Z,28.30
2017-07-05T16:32:48.275Z,28.50
2017-07-05T16:35:15.843Z,28.60
2017-07-05T16:37:44.131Z,28.80
2017-07-05T16:40:12.450Z,28.90
2017-07-05T16:42:40.011Z,28.90
2017-07-05T16:45:07.541Z,29.10
2017-07-05T16:47:35.084Z,29.20
2017-07-05T16:50:02.607Z,29.20
2017-07-05T16:52:30.148Z,29.10
2017-07-05T16:54:58.443Z,29.10
2017-07-05T16:57:26.759Z,29.00
2017-07-05T16:59:54.274Z,29.00
2017-07-05T17:02:21.819Z,28.90
2017-07-05T17:04:49.345Z,28.80
2017-07-05T17:07:16.889Z,28.80
2017-07-05T17:09:44.425Z,28.80
2017-07-05T17:12:12.740Z,28.70
2017-07-05T17:14:40.263Z,28.70
2017-07-05T17:17:08.559Z,28.50
2017-07-05T17:19:36.111Z,28.40
2017-07-05T17:22:04.404Z,28.40
2017-07-05T17:24:31.954Z,28.40
2017-07-05T17:26:59.483Z,28.40
2017-07-05T17:29:27.032Z,28.30
2017-07-05T17:31:54.563Z,28.30
2017-07-05T17:34:22.877Z,28.10
2017-07-05T17:36:51.224Z,28.10
2017-07-05T17:39:19.533Z,28.00
2017-07-05T17:41:47.059Z,27.90
2017-07-05T17:44:15.379Z,27.90
2017-07-05T17:46:42.904Z,27.90
2017-07-05T17:49:10.426Z,27.90
2017-07-05T17:51:38.735Z,27.70
2017-07-05T17:54:06.264Z,27.70
2017-07-05T17:56:33.811Z,27.70
2017-07-05T17:59:01.340Z,27.60
2017-07-05T18:01:28.884Z,27.50
2017-07-05T18:03:56.405Z,27.50
2017-07-05T18:06:23.955Z,27.40
2017-07-05T18:08:51.483Z,27.40
2017-07-05T18:11:19.026Z,27.30
2017-07-05T18:13:46.548Z,27.30
2017-07-05T18:16:14.103Z,27.10
2017-07-05T18:18:41.627Z,27.00
2017-07-05T18:21:09.151Z,26.90
2017-07-05T18:23:36.694Z,26.80
2017-07-05T18:26:04.980Z,26.60
2017-07-05T18:28:32.520Z,26.60
2017-07-05T18:31:00.055Z,26.50
2017-07-05T18:33:28.367Z,26.40
2017-07-05T18:35:55.896Z,26.30
2017-07-05T18:38:23.503Z,26.20
2017-07-05T18:40:51.026Z,25.90
2017-07-05T18:43:18.579Z,25.60
2017-07-05T18:45:46.868Z,25.10
2017-07-05T18:48:14.394Z,25.10
2017-07-05T18:50:41.942Z,24.90
2017-07-05T18:53:09.501Z,24.80
2017-07-05T18:55:37.049Z,24.80
2017-07-05T18:58:04.576Z,24.70
2017-07-05T19:00:32.123Z,24.60
2017-07-05T19:03:00.410Z,24.50
2017-07-05T19:05:27.956Z,24.50
2017-07-05T19:07:56.275Z,24.10
2017-07-05T19:10:23.834Z,24.10
2017-07-05T19:12:51.354Z,23.90
2017-07-05T19:15:18.880Z,23.80
2017-07-05T19:17:46.425Z,23.60
2017-07-05T19:20:13.954Z,23.60
2017-07-05T19:22:41.499Z,23.60
2017-07-05T19:25:09.023Z,23.60
2017-07-05T19:27:36.568Z,23.60
2017-07-05T19:30:04.095Z,23.50
2017-07-05T19:32:31.639Z,23.50
2017-07-05T19:34:59.164Z,23.40
2017-07-05T19:37:26.721Z,23.30
2017-07-05T19:39:54.249Z,22.90
2017-07-05T19:42:21.771Z,22.70
2017-07-05T19:44:50.075Z,22.20
2017-07-05T19:47:17.604Z,22.20
2017-07-05T19:49:45.916Z,21.90
2017-07-05T19:52:13.447Z,21.80
2017-07-05T19:54:41.763Z,21.80
2017-07-05T19:57:09.283Z,21.70
2017-07-05T19:59:37.607Z,21.50
2017-07-05T20:02:05.136Z,21.40
2017-07-05T20:04:32.687Z,21.40
2017-07-05T20:07:00.975Z,21.20
2017-07-05T20:09:28.498Z,21.10
2017-07-05T20:11:56.042Z,21.00
2017-07-05T20:14:23.579Z,20.90
2017-07-05T20:16:51.127Z,20.80
2017-07-05T20:19:18.666Z,20.80
2017-07-05T20:21:46.226Z,20.80
2017-07-05T20:24:13.743Z,20.90
2017-07-05T20:26:41.295Z,20.90
2017-07-05T20:29:08.819Z,20.80
2017-07-05T20:31:36.348Z,20.80
2017-07-05T20:34:03.891Z,20.90
2017-07-05T20:36:32.181Z,20.50
2017-07-05T20:39:00.487Z,20.20
2017-07-05T20:41:28.012Z,20.20
2017-07-05T20:43:56.362Z,20.10
2017-07-05T20:46:24.144Z,20.00
2017-07-05T20:48:51.741Z,20.10
2017-07-05T20:51:19.307Z,20.10
2017-07-05T20:53:46.890Z,20.10
2017-07-05T20:56:14.454Z,20.10
2017-07-05T20:58:42.049Z,20.00
2017-07-05T21:01:10.376Z,20.00
2017-07-05T21:03:37.969Z,20.00
2017-07-05T21:06:06.302Z,19.90
2017-07-05T21:08:33.869Z,19.90
2017-07-05T21:11:01.448Z,20.00
2017-07-05T21:13:29.017Z,19.90
2017-07-05T21:15:56.596Z,19.80
2017-07-05T21:18:24.924Z,19.80
2017-07-05T21:20:52.506Z,19.80
2017-07-05T21:23:20.076Z,19.80
2017-07-05T21:25:47.657Z,19.80
2017-07-05T21:28:15.985Z,19.60
2017-07-05T21:30:43.570Z,19.60
2017-07-05T21:33:11.132Z,19.50
2017-07-05T21:35:38.727Z,19.50
2017-07-05T21:38:07.063Z,19.40
2017-07-05T21:40:34.633Z,19.40
2017-07-05T21:43:02.212Z,19.50
2017-07-05T21:45:30.569Z,19.50
2017-07-05T21:47:58.148Z,19.50
2017-07-05T21:50:25.708Z,19.40
2017-07-05T21:52:53.288Z,19.30
2017-07-05T21:55:21.612Z,19.20
2017-07-05T21:57:49.196Z,19.20
2017-07-05T22:00:16.757Z,19.10
2017-07-05T22:02:44.397Z,19.10
2017-07-05T22:05:11.962Z,19.10
2017-07-05T22:07:39.546Z,19.10
2017-07-05T22:10:07.110Z,19.10
2017-07-05T22:12:34.704Z,19.10
2017-07-05T22:15:03.043Z,19.00
2017-07-05T22:17:30.609Z,19.00
2017-07-05T22:19:58.193Z,18.90
2017-07-05T22:22:25.761Z,18.80
2017-07-05T22:24:53.344Z,18.80
2017-07-05T22:27:20.908Z,18.70
2017-07-05T22:29:48.489Z,18.60
2017-07-05T22:32:16.817Z,18.60
2017-07-05T22:34:44.398Z,18.60
2017-07-05T22:37:11.965Z,18.60
2017-07-05T22:39:39.545Z,18.60
2017-07-05T22:42:07.114Z,18.60
2017-07-05T22:44:34.709Z,18.50
2017-07-05T22:47:02.268Z,18.40
2017-07-05T22:49:29.830Z,18.40
2017-07-05T22:51:57.408Z,18.40
2017-07-05T22:54:24.969Z,18.40
2017-07-05T22:56:52.549Z,18.40
2017-07-05T22:59:20.123Z,18.50
2017-07-05T23:01:48.479Z,18.50
2017-07-05T23:04:16.044Z,18.50
2017-07-05T23:06:43.640Z,18.50
2017-07-05T23:09:11.212Z,18.50
2017-07-05T23:11:39.541Z,18.50
2017-07-05T23:14:07.120Z,18.40
2017-07-05T23:16:34.677Z,18.40
2017-07-05T23:19:02.261Z,18.20
2017-07-05T23:21:30.552Z,17.90
2017-07-05T23:23:58.098Z,17.80
2017-07-05T23:26:26.387Z,17.60
2017-07-05T23:28:54.035Z,17.60
2017-07-05T23:31:22.332Z,17.90
2017-07-05T23:33:49.876Z,17.80
2017-07-05T23:36:18.162Z,17.90
2017-07-05T23:38:45.708Z,17.90
2017-07-05T23:41:13.228Z,17.80
2017-07-05T23:43:40.748Z,17.70
2017-07-05T23:46:08.295Z,17.70
2017-07-05T23:48:36.586Z,17.70
2017-07-05T23:51:04.126Z,17.70
2017-07-05T23:53:32.415Z,17.70
2017-07-05T23:55:59.956Z,17.70
2017-07-05T23:58:28.246Z,17.70
